QUERALBS (Ripollès)





Hora UTC 22:15
Temperatura 2.2 ºC
Humedad 73.4 %
Pluja 0.9 mm
Velocidad viento 11.7 km/h
Dirección viento NE

Datos diarios 2024-02-27



Hora UTC (invierno +1h; verano +2h)
Temperatura (ºC) Humedad (%) Velocidad viento (km/h) Precipitación (mm)
Hora UTC Aire Humedad Vel. Dir. Vel. Max Dir. Intent. máx 5 min.
00:05 0.6 97.4 2.3 ESE 2.3 ESE 0.0
00:10 0.6 97.4 2.2 S 6.0 S 0.0
00:15 0.6 97.5 4.1 NE 8.5 NE 0.0
00:20 0.5 97.6 4.1 NNE 8.5 NNE 0.0
00:25 0.5 97.6 2.7 SE 8.5 SE 0.0
00:30 0.5 97.7 5.7 NE 12.4 NE 0.0
00:35 0.5 97.7 2.7 NNE 6.0 NNW 0.0
00:40 0.5 97.7 1.7 NE 5.3 NNE 0.0
00:45 0.5 97.7 4.0 E 9.9 E 0.0
00:50 0.4 97.7 2.1 E 9.2 SE 0.0
00:55 0.4 97.7 6.1 E 15.2 NE 0.0
01:00 0.4 97.7 3.5 ESE 7.8 SE 0.0
01:05 0.5 97.8 4.0 NNE 7.8 NNE 0.0
01:10 0.5 97.8 3.3 E 7.1 ENE 0.0
01:15 0.4 97.8 2.7 NNE 6.4 NE 0.0
01:20 0.4 97.8 3.1 SSW 8.8 SSE 0.0
01:25 0.4 97.8 2.7 NNE 4.9 NNW 0.0
01:30 0.3 97.7 1.6 S 7.8 SSE 0.0
01:35 0.3 97.8 5.2 NE 11.3 NNE 0.0
01:40 0.3 97.8 3.8 SW 8.1 SE 0.0
01:45 0.3 97.8 5.0 ESE 10.6 ENE 0.0
01:50 0.2 97.8 4.0 SSW 10.9 SSW 0.0
01:55 0.2 97.8 4.2 S 10.6 S 0.0
02:00 0.3 97.8 4.5 S 11.3 SSW 0.0
02:05 0.3 97.8 7.4 S 16.2 S 0.0
02:10 0.3 97.9 4.9 ESE 8.1 ENE 0.0
02:15 0.3 97.9 3.1 ENE 10.2 NE 0.0
02:20 0.3 97.9 1.9 NW 5.6 NW 0.0
02:25 0.3 97.9 5.3 NE 11.6 NNE 0.0
02:30 0.3 97.9 5.9 ENE 10.6 ESE 0.0
02:35 0.3 97.9 6.4 N 11.6 N 0.0
02:40 0.3 97.9 7.8 NNE 14.8 NNE 0.0
02:45 0.3 97.9 5.4 NE 12.4 E 0.0
02:50 0.3 97.8 4.6 NE 11.3 SSE 0.0
02:55 0.2 97.7 5.6 NE 11.3 NNE 0.0
03:00 0.2 97.6 7.2 SSW 17.6 S 0.0
03:05 0.1 97.6 6.6 SE 17.3 S 0.0
03:10 0.0 97.6 7.8 SSE 20.5 NW 0.0
03:15 0.0 97.5 5.0 WSW 13.1 SW 0.0
03:20 0.0 97.6 5.6 NE 16.9 ESE 0.0
03:25 0.0 97.7 6.0 SE 19.4 SSE 0.0
03:30 0.0 97.7 6.2 SW 13.4 S 0.0
03:35 -0.1 97.8 5.3 WNW 9.9 WSW 0.0
03:40 -0.1 97.8 4.1 SSW 17.6 SE 0.0
03:45 0.0 97.7 8.2 ESE 20.1 SE 0.0
03:50 0.0 97.3 7.8 SE 20.1 SE 0.0
03:55 0.0 97.0 4.9 ENE 11.3 SE 0.0
04:00 0.4 93.7 11.9 E 27.2 NE 0.0
04:05 0.2 94.4 4.2 ENE 15.2 ENE 0.0
04:10 0.5 90.2 10.4 ENE 25.4 SE 0.0
04:15 1.1 82.5 12.5 NE 33.2 NNE 0.0
04:20 0.6 89.5 9.4 ENE 30.3 NNW 0.0
04:25 0.9 82.2 15.5 NNE 33.2 N 0.0
04:30 2.5 66.2 13.2 N 32.1 NNE 0.0
04:35 2.9 62.0 12.1 NNE 24.7 N 0.0
04:40 3.1 59.5 12.3 N 37.0 NNE 0.0
04:45 3.3 58.3 9.0 N 26.8 N 0.0
04:50 3.2 58.5 15.4 NNE 33.9 NE 0.0
04:55 3.1 57.5 13.8 N 33.5 NNW 0.0
05:00 3.2 56.6 8.9 NNW 27.5 NNE 0.0
05:05 3.4 54.5 13.2 N 37.4 NNE 0.0
05:10 3.4 54.2 13.2 N 45.5 N 0.0
05:15 3.5 54.5 10.7 N 30.7 NE 0.0
05:20 3.4 52.9 10.3 N 30.7 NNE 0.0
05:25 3.6 52.4 12.7 N 34.2 NNE 0.0
05:30 3.5 53.0 12.4 N 43.4 NNW 0.0
05:35 3.5 53.0 11.2 NNW 31.8 NNE 0.0
05:40 3.5 52.3 7.5 NNW 19.8 NNW 0.0
05:45 3.5 53.0 6.6 NNW 20.8 NNW 0.0
05:50 3.5 52.7 9.2 N 26.8 NNW 0.0
05:55 3.4 52.3 11.1 N 23.6 N 0.0
06:00 3.6 51.4 11.7 N 37.8 N 0.0
06:05 3.6 51.2 9.5 NNW 26.8 N 0.0
06:10 3.6 51.4 12.1 NNW 28.6 N 0.0
06:15 3.5 52.0 9.7 N 27.5 N 0.0
06:20 3.6 52.7 7.5 NNW 22.6 NW 0.0
06:25 3.4 53.8 10.2 N 32.8 WNW 0.0
06:30 3.4 53.4 10.1 NNW 37.0 NNE 0.0
06:35 3.4 52.8 7.6 N 26.5 NNE 0.0
06:40 3.4 53.6 7.2 NNW 24.0 NNW 0.0
06:45 3.5 51.0 9.8 NNW 30.3 SW 0.0
06:50 3.7 50.6 11.1 NNW 38.8 NNE 0.0
06:55 3.8 50.6 8.2 NNW 32.1 N 0.0
07:00 3.7 51.4 9.4 NNW 37.8 NE 0.0
07:05 3.8 51.5 6.5 NW 28.6 N 0.0
07:10 3.8 52.2 8.4 NNW 28.2 NNW 0.0
07:15 3.9 51.3 11.5 N 42.7 NE 0.0
07:20 4.1 50.8 12.7 N 37.8 NNW 0.0
07:25 3.9 52.2 7.0 NNW 36.3 N 0.0
07:30 4.1 50.0 5.7 NNE 21.9 N 0.0
07:35 4.3 50.4 9.8 NNE 29.3 N 0.0
07:40 4.7 49.8 10.4 NNE 25.4 SE 0.0
07:45 4.8 50.0 8.6 ENE 24.3 S 0.0
07:50 4.8 51.1 11.5 ENE 23.3 ESE 0.0
07:55 4.9 49.1 7.2 ENE 22.9 ENE 0.0
08:00 5.2 49.2 4.7 SE 13.8 WSW 0.0
08:05 5.5 47.6 7.5 NNE 24.0 E 0.0
08:10 5.6 46.5 9.5 SE 27.9 E 0.0
08:15 5.8 45.9 9.7 E 25.1 E 0.0
08:20 5.9 47.5 7.5 ESE 20.1 E 0.0
08:25 5.9 46.7 9.4 ESE 26.8 NE 0.0
08:30 6.2 45.9 7.8 S 20.1 SE 0.0
08:35 6.4 45.2 6.9 S 20.1 SSE 0.0
08:40 6.5 45.1 6.2 E 23.6 SSE 0.0
08:45 6.4 44.0 8.0 ENE 17.3 ESE 0.0
08:50 6.1 46.3 10.3 N 28.2 NNE 0.0
08:55 6.3 46.1 7.8 NE 26.8 NE 0.0
09:00 6.5 46.0 10.4 N 33.5 NNE 0.0
09:05 6.4 46.2 12.4 N 31.8 NNE 0.0
09:10 6.6 45.4 12.3 NNE 31.1 NE 0.0
09:15 6.5 44.9 14.4 N 37.8 NNE 0.0
09:20 6.4 45.3 10.8 NNE 30.0 NNE 0.0
09:25 6.8 43.3 8.4 NNW 32.1 ENE 0.0
09:30 6.9 43.3 4.2 ENE 18.4 ESE 0.0
09:35 7.0 43.3 12.9 N 46.6 NNE 0.0
09:40 6.6 43.5 12.8 N 33.9 WNW 0.0
09:45 6.5 44.7 15.0 NNW 45.9 NNW 0.0
09:50 6.5 44.7 13.1 NNE 31.1 N 0.0
09:55 6.7 43.6 11.5 NNW 31.1 NNE 0.0
10:00 7.0 42.5 9.2 NW 25.4 N 0.0
10:05 6.9 43.0 10.4 NE 28.6 NE 0.0
10:10 7.0 41.4 13.2 N 40.9 N 0.0
10:15 7.1 42.0 10.7 ENE 27.2 NE 0.0
10:20 7.6 41.8 9.8 ENE 21.9 N 0.0
10:25 7.5 41.5 11.8 E 33.5 ESE 0.0
10:30 7.8 42.8 7.8 ENE 26.1 ESE 0.0
10:35 8.0 41.0 11.2 NE 27.2 ENE 0.0
10:40 7.8 42.4 9.8 NE 27.9 N 0.0
10:45 7.6 42.2 10.1 NNE 33.9 NNE 0.0
10:50 7.8 43.1 11.7 NNE 26.1 NE 0.0
10:55 7.8 42.4 10.8 NE 31.8 NE 0.0
11:00 7.9 42.5 13.8 NE 33.2 NE 0.0
11:05 7.9 42.5 12.8 ENE 32.5 NE 0.0
11:10 7.8 43.0 9.7 NNE 37.8 ENE 0.0
11:15 7.8 41.5 8.3 SSE 18.0 ENE 0.0
11:20 7.9 43.2 7.7 ENE 25.1 NE 0.0
11:25 7.6 43.5 9.5 NE 34.2 SE 0.0
11:30 7.4 42.3 10.8 NNE 29.3 NE 0.0
11:35 7.0 44.5 7.5 ENE 21.9 ENE 0.0
11:40 7.4 43.2 8.2 ENE 20.8 NNE 0.0
11:45 7.2 44.3 7.7 SSE 15.5 E 0.0
11:50 7.6 44.0 7.6 ENE 25.1 NNE 0.0
11:55 7.2 43.9 9.0 N 25.1 NE 0.0
12:00 7.5 44.4 12.8 ENE 29.3 NE 0.0
12:05 7.4 44.9 6.2 E 23.6 E 0.0
12:10 7.1 45.3 8.3 E 22.9 N 0.0
12:15 6.9 46.8 8.4 E 18.4 E 0.0
12:20 7.2 46.1 11.5 ENE 28.9 ENE 0.0
12:25 7.1 44.6 11.4 NNE 35.3 N 0.0
12:30 7.1 45.4 7.5 NE 17.6 E 0.0
12:35 7.1 45.9 9.0 ENE 24.3 NE 0.0
12:40 7.1 45.7 7.6 SE 18.4 NE 0.0
12:45 7.3 43.7 7.3 ESE 20.8 ENE 0.0
12:50 7.7 42.7 12.3 NE 31.4 ESE 0.0
12:55 7.6 42.1 11.7 ENE 28.9 E 0.0
13:00 7.8 42.1 14.5 NNE 43.0 NNE 0.0
13:05 8.0 42.1 8.1 ENE 19.1 NNE 0.0
13:10 7.9 42.5 5.2 E 19.8 ESE 0.0
13:15 8.1 42.0 8.9 ENE 26.8 E 0.0
13:20 8.2 41.7 7.4 ESE 23.3 ESE 0.0
13:25 8.2 42.0 6.8 ESE 16.6 ENE 0.0
13:30 8.1 42.7 6.4 E 13.8 NE 0.0
13:35 7.8 43.0 13.4 ENE 25.8 NE 0.0
13:40 7.0 47.0 8.1 SE 18.0 SSE 0.0
13:45 7.1 46.7 8.5 E 17.6 SSE 0.0
13:50 6.8 47.2 6.0 E 26.1 NNE 0.0
13:55 6.7 47.5 7.6 ENE 19.4 NNE 0.0
14:00 6.8 47.2 8.4 E 18.4 NE 0.0
14:05 7.3 44.6 7.2 ESE 15.2 ENE 0.0
14:10 7.5 43.4 9.9 ESE 29.6 NE 0.0
14:15 7.4 42.5 9.8 SE 19.4 ENE 0.0
14:20 7.0 42.4 8.7 ESE 17.3 E 0.0
14:25 7.0 43.2 8.6 SE 21.9 SE 0.0
14:30 6.9 43.1 9.8 SSE 20.1 S 0.0
14:35 6.6 44.1 5.8 S 14.8 SSE 0.0
14:40 6.3 45.7 9.7 SSE 19.8 SSE 0.0
14:45 6.0 47.1 7.6 SE 15.2 SSE 0.0
14:50 5.9 46.9 10.2 S 18.7 S 0.0
14:55 6.0 46.1 12.1 SSE 26.8 S 0.0
15:00 6.0 45.1 16.1 S 26.8 SSW 0.0
15:05 6.0 45.3 11.8 SSE 27.2 E 0.0
15:10 6.0 45.0 6.4 SSE 13.8 W 0.0
15:15 6.0 44.6 7.1 SSE 14.1 S 0.0
15:20 6.1 44.9 6.3 SSE 15.9 S 0.0
15:25 6.1 45.0 14.3 NE 23.3 ENE 0.0
15:30 6.0 44.8 11.9 W 28.6 SW 0.0
15:35 6.1 45.7 6.0 E 16.2 E 0.0
15:40 5.9 46.7 11.6 NE 24.0 E 0.0
15:45 5.8 48.2 8.4 ENE 24.3 E 0.0
15:50 5.8 46.6 12.2 E 25.1 ENE 0.0
15:55 5.8 46.8 13.2 SE 26.5 SSE 0.0
16:00 5.8 47.1 11.3 SE 33.9 SSE 0.0
16:05 5.8 46.5 9.9 SSE 22.6 S 0.0
16:10 5.7 46.8 8.4 SSE 16.9 ENE 0.0
16:15 5.8 46.2 7.6 SSE 18.0 S 0.0
16:20 5.8 45.8 9.5 SSE 27.2 S 0.0
16:25 5.7 46.8 7.9 SSE 26.1 ENE 0.0
16:30 5.4 48.6 7.2 E 17.6 S 0.0
16:35 5.2 49.2 13.9 ENE 30.7 ENE 0.0
16:40 5.2 48.6 11.1 E 27.9 ESE 0.0
16:45 5.3 48.7 10.9 NE 36.7 ESE 0.0
16:50 5.2 50.9 10.5 NE 34.2 E 0.0
16:55 5.1 50.8 7.9 N 23.6 NE 0.0
17:00 5.1 51.2 9.5 WNW 30.7 NNE 0.0
17:05 4.7 52.8 8.0 NW 18.4 NNW 0.0
17:10 4.6 51.9 9.9 N 34.2 ESE 0.0
17:15 4.7 50.8 7.5 W 22.2 N 0.0
17:20 4.8 51.1 10.6 ENE 31.4 S 0.0
17:25 4.7 52.8 10.9 ESE 27.5 ENE 0.0
17:30 4.7 52.9 9.8 NNW 35.6 WSW 0.0
17:35 4.4 56.0 9.1 NNW 27.2 NW 0.0
17:40 4.3 55.5 7.2 S 26.5 ENE 0.0
17:45 4.4 55.5 7.8 N 24.0 NE 0.0
17:50 4.4 54.5 8.9 NW 36.0 N 0.0
17:55 4.4 55.0 6.3 ENE 17.3 WNW 0.0
18:00 4.2 56.4 6.6 NW 18.7 SW 0.0
18:05 4.0 60.6 8.0 WNW 30.7 NNW 0.0
18:10 3.6 61.6 7.3 WNW 25.1 N 0.0
18:15 3.6 61.0 8.1 E 25.8 W 0.0
18:20 3.9 57.2 12.3 NNE 37.0 NNE 0.0
18:25 3.9 58.8 6.5 W 27.2 NE 0.0
18:30 4.1 56.9 10.1 SE 46.2 NE 0.0
18:35 4.0 60.3 8.3 NNW 22.6 WSW 0.0
18:40 3.6 63.9 8.3 E 44.8 ENE 0.0
18:45 3.1 69.6 8.8 N 41.6 ENE 0.0
18:50 2.5 72.9 9.8 NNW 27.9 NNE 0.0
18:55 2.4 72.2 6.4 W 21.9 NE 0.1
19:00 2.6 68.8 7.8 WSW 20.8 E 0.0
19:05 2.7 67.4 8.1 W 24.7 ENE 0.0
19:10 2.8 66.8 12.7 NE 38.1 NE 0.0
19:15 2.8 68.2 8.1 E 32.1 NNE 0.0
19:20 2.8 67.4 14.0 ESE 31.4 SE 0.0
19:25 2.9 66.4 12.8 E 27.9 S 0.0
19:30 2.8 68.4 8.9 E 25.8 E 0.0
19:35 2.7 68.6 10.5 ENE 27.2 NE 0.0
19:40 2.7 69.2 9.5 ESE 31.4 NE 0.0
19:45 2.6 69.5 11.2 E 27.5 E 0.0
19:50 2.6 68.8 10.8 ESE 35.6 ENE 0.0
19:55 2.6 70.6 6.7 SE 15.9 E 0.0
20:00 2.2 75.0 6.4 SE 20.5 NNE 0.0
20:05 2.1 75.6 10.6 NE 38.5 ENE 0.1
20:10 2.1 75.1 9.9 NE 32.1 ENE 0.0
20:15 1.9 75.5 10.8 NE 34.2 ESE 0.0
20:20 1.9 75.5 11.6 NE 32.1 E 0.1
20:25 1.9 76.7 9.7 NNE 23.3 ENE 0.0
20:30 1.8 77.0 13.4 NE 32.8 NNE 0.0
20:35 1.6 79.2 13.2 NNE 39.2 NNE 0.0
20:40 1.7 77.8 11.5 NE 43.0 ENE 0.1
20:45 1.8 76.6 12.5 ENE 56.8 NE 0.0
20:50 2.0 73.8 14.6 ENE 50.5 ENE 0.0
20:55 2.2 71.8 17.7 SE 39.2 E 0.1
21:00 2.1 72.1 12.7 ESE 39.9 E 0.0
21:05 2.3 70.4 16.9 NE 50.1 NE 0.0
21:10 2.5 69.0 19.5 NE 58.2 NE 0.0
21:15 2.7 67.4 10.0 ESE 34.2 ENE 0.0
21:20 2.7 68.0 16.6 NNE 55.4 NE 0.1
21:25 2.4 70.4 14.3 NE 49.0 NE 0.0
21:30 2.3 72.3 14.4 NE 55.7 E 0.0
21:35 2.3 72.4 11.3 NE 46.9 NNE 0.1
21:40 2.2 72.5 14.3 ENE 46.2 NE 0.0
21:45 2.3 72.2 15.9 ENE 44.8 E 0.0
21:50 2.1 75.1 12.0 NE 41.3 NE 0.1
21:55 2.1 74.4 14.9 NNE 56.8 ENE 0.0
22:00 2.2 73.8 12.2 NNE 46.6 ENE 0.0
22:05 2.3 73.6 17.1 NNE 52.2 ENE 0.1
22:10 2.2 74.6 9.6 E 49.4 ENE 0.0
22:15 2.2 73.4 11.7 NE 42.3 NNE 0.0
Máxima 8.3 97.9 19.5 NE 58.2 NE 0.1
Mínima -0.8 41.0
Total 0.9